createdAt,value
2023-03-21T00:02:14.954Z,20.88
2023-03-21T00:05:09.412Z,20.50
2023-03-21T00:08:02.376Z,14.65
2023-03-21T00:10:48.202Z,16.60
2023-03-21T00:13:38.244Z,20.15
2023-03-21T00:16:24.637Z,15.65
2023-03-21T00:19:15.859Z,21.02
2023-03-21T00:22:07.912Z,16.15
2023-03-21T00:24:54.833Z,14.35
2023-03-21T00:27:56.797Z,15.10
2023-03-21T00:30:45.361Z,13.65
2023-03-21T00:33:30.862Z,17.13
2023-03-21T00:36:16.410Z,17.08
2023-03-21T00:39:01.543Z,15.18
2023-03-21T00:41:47.875Z,14.98
2023-03-21T00:44:36.752Z,16.90
2023-03-21T00:47:24.070Z,15.82
2023-03-21T00:50:11.905Z,18.03
2023-03-21T00:52:57.397Z,19.70
2023-03-21T00:55:43.355Z,22.25
2023-03-21T00:58:28.833Z,18.65
2023-03-21T01:01:14.042Z,20.52
2023-03-21T01:04:05.511Z,24.38
2023-03-21T01:06:50.778Z,20.42
2023-03-21T01:09:37.557Z,18.35
2023-03-21T01:12:22.820Z,21.73
2023-03-21T01:15:08.173Z,21.98
2023-03-21T01:17:53.420Z,21.30
2023-03-21T01:20:41.605Z,22.50
2023-03-21T01:23:29.213Z,23.27
2023-03-21T01:26:15.614Z,19.67
2023-03-21T01:29:02.494Z,19.50
2023-03-21T01:31:48.041Z,22.52
2023-03-21T01:34:33.112Z,23.83
2023-03-21T01:37:20.280Z,26.55
2023-03-21T01:40:12.952Z,23.27
2023-03-21T01:42:59.957Z,22.88
2023-03-21T01:46:26.208Z,27.30
2023-03-21T01:49:34.336Z,28.20
2023-03-21T01:52:37.588Z,28.98
2023-03-21T01:55:37.459Z,29.70
2023-03-21T01:58:34.788Z,33.38
2023-03-21T02:01:42.206Z,32.28
2023-03-21T02:04:30.243Z,32.13
2023-03-21T02:07:36.743Z,34.45
2023-03-21T02:10:24.094Z,35.80
2023-03-21T02:13:12.596Z,33.40
2023-03-21T02:16:06.177Z,37.88
2023-03-21T02:19:51.053Z,38.60
2023-03-21T02:22:39.008Z,36.38
2023-03-21T02:25:45.553Z,39.75
2023-03-21T02:28:42.050Z,35.05
2023-03-21T02:31:46.102Z,37.28
2023-03-21T02:34:43.085Z,35.92
2023-03-21T02:37:44.638Z,40.45
2023-03-21T02:40:44.717Z,35.80
2023-03-21T02:43:53.727Z,45.75
2023-03-21T02:47:04.746Z,37.78
2023-03-21T02:50:07.231Z,36.85
2023-03-21T02:52:54.299Z,38.10
2023-03-21T02:55:42.985Z,35.63
2023-03-21T03:01:17.823Z,37.88
2023-03-21T03:04:19.163Z,36.57
2023-03-21T03:07:26.094Z,39.78
2023-03-21T03:10:38.024Z,39.83
2023-03-21T03:13:35.692Z,44.67
2023-03-21T03:16:59.569Z,41.85
2023-03-21T03:20:18.667Z,37.22
2023-03-21T03:26:05.432Z,34.78
2023-03-21T03:28:54.703Z,42.15
2023-03-21T03:31:48.553Z,40.90
2023-03-21T03:34:39.517Z,39.75
2023-03-21T03:37:33.333Z,46.08
2023-03-21T03:40:30.233Z,46.28
2023-03-21T03:43:36.634Z,44.05
2023-03-21T03:46:36.698Z,48.47
2023-03-21T03:49:26.029Z,45.22
2023-03-21T03:52:22.656Z,44.90
2023-03-21T03:55:17.663Z,48.53
2023-03-21T03:58:13.200Z,45.13
2023-03-21T04:01:07.452Z,44.72
2023-03-21T04:04:03.552Z,40.22
2023-03-21T04:06:57.962Z,41.63
2023-03-21T04:09:45.061Z,43.65
2023-03-21T04:12:34.465Z,47.38
2023-03-21T04:15:38.389Z,40.72
2023-03-21T04:18:30.489Z,43.13
2023-03-21T04:21:16.677Z,45.83
2023-03-21T04:24:01.937Z,43.33
2023-03-21T04:26:47.005Z,41.90
2023-03-21T04:29:56.177Z,42.42
2023-03-21T04:35:45.524Z,45.67
2023-03-21T04:38:33.886Z,40.92
2023-03-21T04:41:21.749Z,41.13
2023-03-21T04:44:09.735Z,40.53
2023-03-21T04:46:55.849Z,44.22
2023-03-21T04:49:41.054Z,42.78
2023-03-21T04:52:29.351Z,42.90
2023-03-21T04:55:15.955Z,41.72
2023-03-21T04:58:01.237Z,42.65
2023-03-21T05:00:46.951Z,47.03
2023-03-21T05:03:34.525Z,44.13
2023-03-21T05:06:20.489Z,41.53
2023-03-21T05:09:06.912Z,38.65
2023-03-21T05:11:53.204Z,46.65
2023-03-21T05:14:38.870Z,48.88
2023-03-21T05:17:28.253Z,42.15
2023-03-21T05:20:17.255Z,42.63
2023-03-21T05:23:02.362Z,50.25
2023-03-21T05:25:47.578Z,42.20
2023-03-21T05:28:37.845Z,47.50
2023-03-21T05:31:23.330Z,45.88
2023-03-21T05:34:14.399Z,53.08
2023-03-21T05:37:00.477Z,46.15
2023-03-21T05:39:55.949Z,53.05
2023-03-21T05:42:47.558Z,44.15
2023-03-21T05:45:38.364Z,48.78
2023-03-21T05:48:23.977Z,48.67
2023-03-21T05:51:32.187Z,54.53
2023-03-21T05:54:17.557Z,48.53
2023-03-21T05:57:06.350Z,54.95
2023-03-21T06:00:11.925Z,49.13
2023-03-21T06:03:10.927Z,53.67
2023-03-21T06:06:22.348Z,50.42
2023-03-21T06:09:12.572Z,47.35
2023-03-21T06:12:00.477Z,47.38
2023-03-21T06:14:50.194Z,47.92
2023-03-21T06:17:48.612Z,47.95
2023-03-21T06:20:35.140Z,55.20
2023-03-21T06:23:27.003Z,51.22
2023-03-21T06:26:13.065Z,51.55
2023-03-21T06:28:58.249Z,48.28
2023-03-21T06:31:43.805Z,48.13
2023-03-21T06:34:28.821Z,52.83
2023-03-21T06:37:14.263Z,50.30
2023-03-21T06:40:00.481Z,46.70
2023-03-21T06:42:45.762Z,51.75
2023-03-21T06:45:31.886Z,49.25
2023-03-21T06:48:17.134Z,48.38
2023-03-21T06:51:07.617Z,49.45
2023-03-21T06:56:54.893Z,49.55
2023-03-21T06:59:46.201Z,47.15
2023-03-21T07:02:38.799Z,51.13
2023-03-21T07:05:37.872Z,53.30
2023-03-21T07:08:24.372Z,57.00
2023-03-21T07:11:10.561Z,51.38
2023-03-21T07:13:55.969Z,49.38
2023-03-21T07:16:42.101Z,53.58
2023-03-21T07:19:27.563Z,54.70
2023-03-21T07:22:12.804Z,55.28
2023-03-21T07:25:04.794Z,58.10
2023-03-21T07:27:57.240Z,56.58
2023-03-21T07:30:43.853Z,54.15
2023-03-21T07:33:30.711Z,54.25
2023-03-21T07:36:19.140Z,57.65
2023-03-21T07:39:05.012Z,53.05
2023-03-21T07:41:50.741Z,57.22
2023-03-21T07:44:49.129Z,55.75
2023-03-21T07:47:34.696Z,53.65
2023-03-21T07:50:20.925Z,53.85
2023-03-21T07:53:06.196Z,56.60
2023-03-21T07:55:52.720Z,57.05
2023-03-21T07:58:38.083Z,56.63
2023-03-21T08:01:23.409Z,52.65
2023-03-21T08:04:08.572Z,54.25
2023-03-21T08:06:54.089Z,56.40
2023-03-21T08:09:39.651Z,50.33
2023-03-21T08:12:25.183Z,54.08
2023-03-21T08:15:11.484Z,51.10
2023-03-21T08:17:59.658Z,49.25
2023-03-21T08:20:44.933Z,39.13
2023-03-21T08:23:30.603Z,51.10
2023-03-21T08:26:18.277Z,48.53
2023-03-21T08:29:03.457Z,52.15
2023-03-21T08:31:48.753Z,48.53
2023-03-21T08:34:34.520Z,44.08
2023-03-21T08:37:19.907Z,41.83
2023-03-21T08:40:09.055Z,47.45
2023-03-21T08:42:55.453Z,47.83
2023-03-21T08:45:41.012Z,45.45
2023-03-21T08:48:26.393Z,50.22
2023-03-21T08:51:11.859Z,42.88
2023-03-21T08:53:57.313Z,43.72
2023-03-21T08:56:42.609Z,41.13
2023-03-21T08:59:28.037Z,40.20
2023-03-21T09:02:16.071Z,41.95
2023-03-21T09:05:01.338Z,40.97
2023-03-21T09:07:47.764Z,41.70
2023-03-21T09:10:34.356Z,41.58
2023-03-21T09:13:19.988Z,43.33
2023-03-21T09:16:05.770Z,40.65
2023-03-21T09:18:55.519Z,47.20
2023-03-21T09:21:40.958Z,41.13
2023-03-21T09:24:26.441Z,42.85
2023-03-21T09:27:12.284Z,39.40
2023-03-21T09:29:57.652Z,40.00
2023-03-21T09:32:45.545Z,41.03
2023-03-21T09:35:31.262Z,43.13
2023-03-21T09:38:17.354Z,38.00
2023-03-21T09:41:03.433Z,41.15
2023-03-21T09:44:37.690Z,41.38
2023-03-21T09:47:34.779Z,38.03
2023-03-21T09:50:27.214Z,39.42
2023-03-21T09:53:23.504Z,42.28
2023-03-21T09:56:12.878Z,39.38
2023-03-21T09:59:00.618Z,43.75
2023-03-21T10:01:48.349Z,42.22
2023-03-21T10:04:33.896Z,40.92
2023-03-21T10:07:19.869Z,39.30
2023-03-21T10:10:07.373Z,40.40
2023-03-21T10:12:54.617Z,37.22
2023-03-21T10:15:40.496Z,38.35
2023-03-21T10:18:29.812Z,39.90
2023-03-21T10:21:56.638Z,41.60
2023-03-21T10:24:34.451Z,37.30
2023-03-21T10:27:20.228Z,38.13
2023-03-21T10:30:07.576Z,37.72
2023-03-21T10:32:55.065Z,37.92
2023-03-21T10:35:45.469Z,38.20
2023-03-21T10:38:31.181Z,36.03
2023-03-21T10:41:16.792Z,40.88
2023-03-21T10:44:17.406Z,38.70
2023-03-21T10:47:09.273Z,37.17
2023-03-21T10:50:10.987Z,35.92
2023-03-21T10:53:00.627Z,34.65
2023-03-21T10:55:49.015Z,35.25
2023-03-21T10:58:39.476Z,35.40
2023-03-21T11:01:42.942Z,32.05
2023-03-21T11:04:29.658Z,37.55
2023-03-21T11:07:15.666Z,38.72
2023-03-21T11:10:14.613Z,37.58
2023-03-21T11:13:06.991Z,40.20
2023-03-21T11:16:03.667Z,36.38
2023-03-21T11:18:57.004Z,36.10
2023-03-21T11:21:42.935Z,38.42
2023-03-21T11:24:30.594Z,34.80
2023-03-21T11:27:15.924Z,35.13
2023-03-21T11:30:02.758Z,30.63
2023-03-21T11:32:55.180Z,33.15
2023-03-21T11:35:41.113Z,33.33
2023-03-21T11:38:31.671Z,37.70
2023-03-21T11:41:30.982Z,30.85
2023-03-21T11:44:32.071Z,31.85
2023-03-21T11:47:17.620Z,27.75
2023-03-21T11:50:16.686Z,30.73
2023-03-21T11:53:29.135Z,33.50
2023-03-21T11:56:39.446Z,29.33
2023-03-21T12:00:00.329Z,35.40
2023-03-21T12:03:04.132Z,33.63
2023-03-21T12:06:02.853Z,32.13
2023-03-21T12:09:00.210Z,27.55
2023-03-21T12:12:10.416Z,28.65
2023-03-21T12:15:22.826Z,25.25
2023-03-21T12:18:36.330Z,30.33
2023-03-21T12:21:39.081Z,26.17
2023-03-21T12:24:38.732Z,26.70
2023-03-21T12:27:49.782Z,24.33
2023-03-21T12:30:48.151Z,26.77
2023-03-21T12:33:49.844Z,23.13
2023-03-21T12:37:22.401Z,32.30
2023-03-21T12:40:33.816Z,26.80
2023-03-21T12:43:25.174Z,26.48
2023-03-21T12:46:20.977Z,29.80
2023-03-21T12:49:13.293Z,26.23
2023-03-21T12:52:07.634Z,34.80
2023-03-21T12:54:59.831Z,25.38
2023-03-21T12:57:57.476Z,24.45
2023-03-21T13:00:48.765Z,25.02
2023-03-21T13:03:43.748Z,24.83
2023-03-21T13:06:30.525Z,24.08
2023-03-21T13:09:36.699Z,24.77
2023-03-21T13:12:36.101Z,25.80
2023-03-21T13:15:50.598Z,23.33
2023-03-21T13:18:48.974Z,22.70
2023-03-21T13:22:16.111Z,24.45
2023-03-21T13:25:17.783Z,18.30
2023-03-21T13:28:06.229Z,23.67
2023-03-21T13:30:51.763Z,22.45
2023-03-21T13:33:37.996Z,19.77
2023-03-21T13:36:31.628Z,19.38
2023-03-21T13:39:27.377Z,23.23
2023-03-21T13:42:29.164Z,20.30
2023-03-21T13:45:44.062Z,18.73
2023-03-21T13:48:49.428Z,20.75
2023-03-21T13:51:51.309Z,23.85
2023-03-21T13:54:52.932Z,22.60
2023-03-21T13:57:38.973Z,19.55
2023-03-21T14:00:31.077Z,20.50
2023-03-21T14:03:20.733Z,19.05
2023-03-21T14:06:08.448Z,24.80
2023-03-21T14:08:53.620Z,18.25
2023-03-21T14:11:44.452Z,17.83
2023-03-21T14:14:40.446Z,19.98
2023-03-21T14:17:31.481Z,19.92
2023-03-21T14:20:42.965Z,22.35
2023-03-21T14:23:28.161Z,17.90
2023-03-21T14:26:14.228Z,18.33
2023-03-21T14:29:05.222Z,17.35
2023-03-21T14:31:51.962Z,21.52
2023-03-21T14:34:37.580Z,18.30
2023-03-21T14:37:42.200Z,16.75
2023-03-21T14:40:29.413Z,19.90
2023-03-21T14:43:14.471Z,18.33
2023-03-21T14:46:00.973Z,15.85
2023-03-21T14:48:46.203Z,16.38
2023-03-21T14:51:31.791Z,15.18
2023-03-21T14:54:18.333Z,16.88
2023-03-21T14:57:07.862Z,20.38
2023-03-21T14:59:57.457Z,17.73
2023-03-21T15:02:45.852Z,23.05
2023-03-21T15:05:32.789Z,18.17
2023-03-21T15:08:20.250Z,20.50
2023-03-21T15:11:11.965Z,19.42
2023-03-21T15:14:01.352Z,18.77
2023-03-21T15:16:47.364Z,17.67
2023-03-21T15:19:35.761Z,23.13
2023-03-21T15:22:37.992Z,15.68
2023-03-21T15:25:28.182Z,15.02
2023-03-21T15:28:14.939Z,16.02
2023-03-21T15:31:01.094Z,17.77
2023-03-21T15:33:48.839Z,22.17
2023-03-21T15:36:44.533Z,22.13
2023-03-21T15:39:30.076Z,18.00
2023-03-21T15:42:48.057Z,15.50
2023-03-21T15:45:33.805Z,12.85
2023-03-21T15:48:27.059Z,15.00
2023-03-21T15:51:22.513Z,15.80
2023-03-21T15:54:17.684Z,18.20
2023-03-21T15:57:09.607Z,18.10
2023-03-21T15:59:59.440Z,19.33
2023-03-21T16:02:45.614Z,19.77
2023-03-21T16:05:33.667Z,19.55
2023-03-21T16:08:27.258Z,16.67
2023-03-21T16:11:16.015Z,19.45
2023-03-21T16:14:01.411Z,17.70
2023-03-21T16:16:48.028Z,15.60
2023-03-21T16:19:34.281Z,16.42
2023-03-21T16:22:21.532Z,14.93
2023-03-21T16:25:07.321Z,14.65
2023-03-21T16:27:52.827Z,18.67
2023-03-21T16:30:38.734Z,21.48
2023-03-21T16:33:25.424Z,20.33
2023-03-21T16:36:17.728Z,18.60
2023-03-21T16:39:15.405Z,22.23
2023-03-21T16:42:00.631Z,19.23
2023-03-21T16:44:46.035Z,21.33
2023-03-21T16:47:31.695Z,20.85
2023-03-21T16:50:19.933Z,23.02
2023-03-21T16:53:05.457Z,21.30
2023-03-21T16:55:51.182Z,23.52
2023-03-21T16:58:36.291Z,22.75
2023-03-21T17:01:27.229Z,25.63
2023-03-21T17:04:13.053Z,27.02
2023-03-21T17:06:58.206Z,25.75
2023-03-21T17:09:43.779Z,26.48
2023-03-21T17:12:29.300Z,27.35
2023-03-21T17:15:15.272Z,25.67
2023-03-21T17:18:01.066Z,24.85
2023-03-21T17:20:46.312Z,24.27
2023-03-21T17:23:31.348Z,22.60
2023-03-21T17:26:28.080Z,32.97
2023-03-21T17:29:14.821Z,29.85
2023-03-21T17:32:00.124Z,27.73
2023-03-21T17:34:45.192Z,29.63
2023-03-21T17:37:30.876Z,26.88
2023-03-21T17:40:28.762Z,28.00
2023-03-21T17:43:19.528Z,26.77
2023-03-21T17:46:05.297Z,27.67
2023-03-21T17:48:50.879Z,27.98
2023-03-21T17:51:36.166Z,29.65
2023-03-21T17:54:21.379Z,30.27
2023-03-21T17:57:07.052Z,26.88
2023-03-21T17:59:52.251Z,26.85
2023-03-21T18:02:40.941Z,28.38
2023-03-21T18:05:27.268Z,30.98
2023-03-21T18:08:13.145Z,32.88
2023-03-21T18:10:58.877Z,39.35
2023-03-21T18:13:45.049Z,29.35
2023-03-21T18:16:30.481Z,33.10
2023-03-21T18:19:16.073Z,27.75
2023-03-21T18:22:02.084Z,30.88
2023-03-21T18:24:47.342Z,28.50
2023-03-21T18:27:33.254Z,28.27
2023-03-21T18:30:44.291Z,30.85
2023-03-21T18:33:24.939Z,24.85
2023-03-21T18:36:13.884Z,27.95
2023-03-21T18:41:48.058Z,29.23
2023-03-21T18:44:37.778Z,29.50
2023-03-21T18:47:23.533Z,26.83
2023-03-21T18:50:14.407Z,29.20
2023-03-21T18:53:00.276Z,32.03
2023-03-21T18:55:47.922Z,30.38
2023-03-21T18:58:34.537Z,28.65
2023-03-21T19:01:20.077Z,30.55
2023-03-21T19:04:20.864Z,31.42
2023-03-21T19:07:08.567Z,33.13
2023-03-21T19:10:19.843Z,31.02
2023-03-21T19:12:59.045Z,36.40
2023-03-21T19:15:44.480Z,36.42
2023-03-21T19:18:53.124Z,39.30
2023-03-21T19:21:37.361Z,38.42
2023-03-21T19:24:28.120Z,31.05
2023-03-21T19:27:14.675Z,29.52
2023-03-21T19:30:13.805Z,30.55
2023-03-21T19:32:59.816Z,33.03
2023-03-21T19:35:46.560Z,30.10
2023-03-21T19:38:31.890Z,30.58
2023-03-21T19:41:19.098Z,32.35
2023-03-21T19:44:05.536Z,30.20
2023-03-21T19:46:51.278Z,33.85
2023-03-21T19:50:06.688Z,35.45
2023-03-21T19:52:42.048Z,30.90
2023-03-21T19:55:27.983Z,29.10
2023-03-21T19:58:16.059Z,32.60
2023-03-21T20:01:01.525Z,35.45
2023-03-21T20:03:47.233Z,30.02
2023-03-21T20:06:32.579Z,30.42
2023-03-21T20:09:49.584Z,31.33
2023-03-21T20:12:23.234Z,32.55
2023-03-21T20:15:17.080Z,34.55
2023-03-21T20:18:07.245Z,30.90
2023-03-21T20:20:53.261Z,34.10
2023-03-21T20:23:39.157Z,33.28
2023-03-21T20:26:24.561Z,33.70
2023-03-21T20:30:05.382Z,35.13
2023-03-21T20:32:16.214Z,35.33
2023-03-21T20:35:13.596Z,35.33
2023-03-21T20:38:04.398Z,33.80
2023-03-21T20:40:49.585Z,30.25
2023-03-21T20:46:41.693Z,40.55
2023-03-21T20:49:28.210Z,31.83
2023-03-21T20:52:54.425Z,36.33
2023-03-21T20:55:21.441Z,31.92
2023-03-21T20:58:27.206Z,33.50
2023-03-21T21:01:17.338Z,31.80
2023-03-21T21:04:03.490Z,32.20
2023-03-21T21:06:49.329Z,32.22
2023-03-21T21:09:34.432Z,33.47
2023-03-21T21:12:19.986Z,35.78
2023-03-21T21:15:07.727Z,34.55
2023-03-21T21:18:11.791Z,34.83
2023-03-21T21:20:58.860Z,34.75
2023-03-21T21:23:44.202Z,33.53
2023-03-21T21:26:29.281Z,35.35
2023-03-21T21:29:17.082Z,40.03
2023-03-21T21:32:02.460Z,33.45
2023-03-21T21:34:48.474Z,37.08
2023-03-21T21:37:36.141Z,38.60
2023-03-21T21:40:23.261Z,31.58
2023-03-21T21:43:08.754Z,34.38
2023-03-21T21:45:54.815Z,37.40
2023-03-21T21:48:40.944Z,41.58
2023-03-21T21:51:26.539Z,37.28
2023-03-21T21:54:18.481Z,37.20
2023-03-21T21:57:03.969Z,39.53
2023-03-21T21:59:54.310Z,35.17
2023-03-21T22:02:40.702Z,32.30
2023-03-21T22:05:26.729Z,31.65
2023-03-21T22:08:12.315Z,35.70
2023-03-21T22:10:57.761Z,40.40
2023-03-21T22:13:43.552Z,30.42
2023-03-21T22:16:29.087Z,33.60
2023-03-21T22:19:14.492Z,32.47
2023-03-21T22:21:59.785Z,32.80
2023-03-21T22:24:44.919Z,34.90
2023-03-21T22:27:30.446Z,35.60
2023-03-21T22:30:17.317Z,30.95
2023-03-21T22:33:09.694Z,34.17
2023-03-21T22:35:55.139Z,35.03
2023-03-21T22:38:41.784Z,34.75
2023-03-21T22:41:27.379Z,31.77
2023-03-21T22:44:13.053Z,33.15
2023-03-21T22:46:58.243Z,32.65
2023-03-21T22:49:45.311Z,34.33
2023-03-21T22:52:30.770Z,36.35
2023-03-21T22:55:16.196Z,31.80
2023-03-21T22:58:01.648Z,40.88
2023-03-21T23:00:47.272Z,27.92
2023-03-21T23:03:32.833Z,32.80
2023-03-21T23:06:19.513Z,27.92
2023-03-21T23:09:05.293Z,32.97
2023-03-21T23:11:50.767Z,35.47
2023-03-21T23:14:35.940Z,30.33
2023-03-21T23:17:20.996Z,23.65
2023-03-21T23:20:08.499Z,26.77
2023-03-21T23:22:53.711Z,32.60
2023-03-21T23:25:42.036Z,28.38
2023-03-21T23:28:27.686Z,29.83
2023-03-21T23:31:16.841Z,28.85
2023-03-21T23:34:02.864Z,26.02
2023-03-21T23:36:48.381Z,30.00
2023-03-21T23:39:34.333Z,26.50
2023-03-21T23:42:19.900Z,30.42
2023-03-21T23:45:06.457Z,33.72
2023-03-21T23:47:51.677Z,28.77
2023-03-21T23:50:37.566Z,25.95
2023-03-21T23:53:23.266Z,27.23
2023-03-21T23:56:13.363Z,29.65
2023-03-21T23:58:59.013Z,33.58
